Hlavní strana
METAR-TAF:

METAR-TAF

Letiště :

Champaign / Urbana, Illinois, Spojené státy americké

zeměpisná šířka: 40-01-56N, zeměpisná délka: 088-16-24W, výška: 229 m

Aktuální stav počasí

Zpráva byla vytvořena před 1 hodinou a 7 minutami, v 23:53 UTC
Severoseverozápadní vítr 10 kt
Teplota -6°C
Vlhkost vzduchu 58%
Tlak 1038 hPa
Viditelnost: 16.1 km
Jasno

METAR: KCMI 202353Z 34010KT 10SM CLR M06/M13 A3065 RMK AO2 SLP393 T10561128 11028 21056 53004

Čas: 19:00 (01:00 UTC)

Předpověď počasí

Zpráva byla vytvořena před 1 hodinou a 40 minutami, v 23:20 UTC
Předpověď platná od 21 v 00 UTC do 21 v 24 UTC
Severní vítr 8 kt
Viditelnost: 10 km
Jasno
Od 21 v 0200 UTC
vítr z různých směrů 3 kt
Viditelnost: 10 km
Jasno
Od 21 v 1800 UTC
Jihozápadní vítr 8 kt
Viditelnost: 10 km
Jasno

TAF: KCMI 202320Z 2100/2124 35008KT P6SM SKC FM210200 VRB03KT P6SM SKC FM211800 23008KT P6SM SKC

Stav a předpovědi počasí z více než 4 000 letišť (zprávy METAR a TAF).

Červené a žluté tečky na mapě představují dostupné meteorologické stanice.

Když kurzor umístíte na tečku, zobrazí se název stanice.

Pak kliknutím zobrazíte stav a předpověď počasí.

Chcete-li změnit mapu, kliknutím na zelené tlačítko se znaménkem +mapu přiblížíte, kliknutím na zelené tlačítko se znaménkem – mapu oddálíte a kliknutím na zelené šipky přejdete na sousední mapy.


METAR-TAF: